createdAt,value
2023-03-04T00:00:29.141Z,2.50
2023-03-04T00:03:18.458Z,2.46
2023-03-04T00:05:48.034Z,2.42
2023-03-04T00:08:18.160Z,2.35
2023-03-04T00:10:49.081Z,2.32
2023-03-04T00:13:21.546Z,2.27
2023-03-04T00:15:52.244Z,2.21
2023-03-04T00:18:22.177Z,2.13
2023-03-04T00:20:51.876Z,2.06
2023-03-04T00:23:20.938Z,1.95
2023-03-04T00:25:50.158Z,1.85
2023-03-04T00:28:20.186Z,1.74
2023-03-04T00:30:50.711Z,1.61
2023-03-04T00:33:20.870Z,1.50
2023-03-04T00:35:50.277Z,1.40
2023-03-04T00:38:20.495Z,1.29
2023-03-04T00:40:51.574Z,1.20
2023-03-04T00:43:22.442Z,1.14
2023-03-04T00:45:52.328Z,1.07
2023-03-04T00:48:21.951Z,1.00
2023-03-04T00:50:54.180Z,0.92
2023-03-04T00:53:29.713Z,0.87
2023-03-04T00:55:58.771Z,0.84
2023-03-04T00:58:27.752Z,0.82
2023-03-04T01:00:57.156Z,0.78
2023-03-04T01:03:32.393Z,0.71
2023-03-04T01:06:02.401Z,0.70
2023-03-04T01:08:31.558Z,0.71
2023-03-04T01:11:01.435Z,0.72
2023-03-04T01:13:31.400Z,0.74
2023-03-04T01:16:01.913Z,0.74
2023-03-04T01:18:33.165Z,0.72
2023-03-04T01:21:02.682Z,0.73
2023-03-04T01:23:32.820Z,0.74
2023-03-04T01:26:05.142Z,0.75
2023-03-04T01:28:36.478Z,0.78
2023-03-04T01:31:08.592Z,0.84
2023-03-04T01:33:38.429Z,0.92
2023-03-04T01:36:08.588Z,0.96
2023-03-04T01:38:37.602Z,0.94
2023-03-04T01:41:09.109Z,0.88
2023-03-04T01:43:39.278Z,0.84
2023-03-04T01:46:15.439Z,0.80
2023-03-04T01:48:45.507Z,0.74
2023-03-04T01:51:19.275Z,0.69
2023-03-04T01:53:53.743Z,0.63
2023-03-04T01:56:28.815Z,0.54
2023-03-04T01:59:15.591Z,0.45
2023-03-04T02:01:56.103Z,0.36
2023-03-04T02:04:30.352Z,0.30
2023-03-04T02:07:02.238Z,0.25
2023-03-04T02:09:33.569Z,0.16
2023-03-04T02:12:03.531Z,0.10
2023-03-04T02:14:35.040Z,0.03
2023-03-04T02:17:12.759Z,-0.00
2023-03-04T02:20:00.310Z,-0.03
2023-03-04T02:22:30.492Z,-0.09
2023-03-04T02:25:11.399Z,-0.16
2023-03-04T02:27:41.712Z,-0.24
2023-03-04T02:30:13.825Z,-0.29
2023-03-04T02:32:43.584Z,-0.32
2023-03-04T02:35:20.757Z,-0.34
2023-03-04T02:37:49.994Z,-0.37
2023-03-04T02:40:30.035Z,-0.45
2023-03-04T02:43:01.207Z,-0.53
2023-03-04T02:45:40.384Z,-0.55
2023-03-04T02:48:12.448Z,-0.57
2023-03-04T02:50:47.806Z,-0.57
2023-03-04T02:53:19.077Z,-0.57
2023-03-04T02:55:49.429Z,-0.55
2023-03-04T02:58:19.490Z,-0.53
2023-03-04T03:00:50.733Z,-0.51
2023-03-04T03:03:19.952Z,-0.52
2023-03-04T03:05:50.192Z,-0.48
2023-03-04T03:08:19.761Z,-0.47
2023-03-04T03:10:52.477Z,-0.44
2023-03-04T03:13:23.148Z,-0.38
2023-03-04T03:15:57.448Z,-0.32
2023-03-04T03:18:27.404Z,-0.31
2023-03-04T03:20:56.486Z,-0.36
2023-03-04T03:23:26.307Z,-0.38
2023-03-04T03:26:46.535Z,-0.41
2023-03-04T03:29:16.433Z,-0.47
2023-03-04T03:31:45.501Z,-0.50
2023-03-04T03:34:15.081Z,-0.54
2023-03-04T03:36:45.591Z,-0.60
2023-03-04T03:39:16.167Z,-0.60
2023-03-04T03:41:46.607Z,-0.51
2023-03-04T03:44:16.818Z,-0.41
2023-03-04T03:46:47.874Z,-0.43
2023-03-04T03:49:17.627Z,-0.48
2023-03-04T03:51:48.331Z,-0.54
2023-03-04T03:54:20.264Z,-0.60
2023-03-04T03:56:50.130Z,-0.66
2023-03-04T03:59:19.505Z,-0.72
2023-03-04T04:01:49.925Z,-0.76
2023-03-04T04:04:22.005Z,-0.81
2023-03-04T04:06:51.395Z,-0.85
2023-03-04T04:09:21.772Z,-0.89
2023-03-04T04:11:53.114Z,-0.91
2023-03-04T04:14:22.829Z,-0.96
2023-03-04T04:16:52.787Z,-1.04
2023-03-04T04:19:22.682Z,-1.11
2023-03-04T04:21:52.900Z,-1.17
2023-03-04T04:24:23.667Z,-1.21
2023-03-04T04:26:53.515Z,-1.25
2023-03-04T04:29:23.632Z,-1.28
2023-03-04T04:31:56.112Z,-1.32
2023-03-04T04:34:26.602Z,-1.36
2023-03-04T04:36:57.303Z,-1.38
2023-03-04T04:39:27.248Z,-1.39
2023-03-04T04:41:57.325Z,-1.38
2023-03-04T04:44:27.051Z,-1.38
2023-03-04T04:46:56.109Z,-1.35
2023-03-04T04:49:25.218Z,-1.35
2023-03-04T04:51:54.378Z,-1.36
2023-03-04T04:54:25.228Z,-1.34
2023-03-04T04:56:55.557Z,-1.34
2023-03-04T04:59:25.312Z,-1.37
2023-03-04T05:01:54.429Z,-1.39
2023-03-04T05:04:24.030Z,-1.39
2023-03-04T05:06:53.197Z,-1.39
2023-03-04T05:09:23.776Z,-1.37
2023-03-04T05:11:59.846Z,-1.38
2023-03-04T05:14:32.290Z,-1.38
2023-03-04T05:17:01.646Z,-1.38
2023-03-04T05:19:32.183Z,-1.38
2023-03-04T05:22:01.707Z,-1.40
2023-03-04T05:24:53.949Z,-1.41
2023-03-04T05:27:26.816Z,-1.40
2023-03-04T05:30:00.453Z,-1.41
2023-03-04T05:32:34.089Z,-1.42
2023-03-04T05:37:50.044Z,-1.47
2023-03-04T05:40:19.352Z,-1.49
2023-03-04T05:42:48.746Z,-1.48
2023-03-04T05:45:18.544Z,-1.45
2023-03-04T05:47:48.931Z,-1.43
2023-03-04T05:50:24.340Z,-1.42
2023-03-04T05:52:57.826Z,-1.41
2023-03-04T05:55:30.577Z,-1.39
2023-03-04T05:58:03.357Z,-1.37
2023-03-04T06:00:33.352Z,-1.33
2023-03-04T06:03:03.159Z,-1.28
2023-03-04T06:05:32.599Z,-1.24
2023-03-04T06:08:02.977Z,-1.22
2023-03-04T06:10:34.097Z,-1.18
2023-03-04T06:13:09.451Z,-1.09
2023-03-04T06:15:41.267Z,-1.00
2023-03-04T06:18:11.038Z,-0.91
2023-03-04T06:20:41.678Z,-0.79
2023-03-04T06:23:13.000Z,-0.68
2023-03-04T06:25:45.532Z,-0.54
2023-03-04T06:28:14.888Z,-0.36
2023-03-04T06:30:44.737Z,-0.19
2023-03-04T06:33:15.301Z,-0.01
2023-03-04T06:35:44.858Z,0.19
2023-03-04T06:38:18.660Z,0.37
2023-03-04T06:40:56.732Z,0.56
2023-03-04T06:43:40.033Z,0.73
2023-03-04T06:46:11.240Z,0.93
2023-03-04T06:48:42.260Z,1.12
2023-03-04T06:51:18.254Z,1.33
2023-03-04T06:53:50.995Z,1.54
2023-03-04T06:56:20.349Z,1.76
2023-03-04T06:58:50.628Z,1.97
2023-03-04T07:01:27.354Z,2.18
2023-03-04T07:03:58.020Z,2.38
2023-03-04T07:06:32.098Z,2.52
2023-03-04T07:09:10.259Z,2.66
2023-03-04T07:11:39.524Z,2.77
2023-03-04T07:14:09.690Z,2.92
2023-03-04T07:16:41.318Z,3.04
2023-03-04T07:19:11.465Z,3.16
2023-03-04T07:21:59.558Z,3.31
2023-03-04T07:24:31.442Z,3.46
2023-03-04T07:27:01.567Z,3.59
2023-03-04T07:29:30.945Z,3.73
2023-03-04T07:32:10.374Z,3.86
2023-03-04T07:34:43.518Z,4.00
2023-03-04T07:37:14.289Z,4.13
2023-03-04T07:39:44.610Z,4.28
2023-03-04T07:42:21.331Z,4.43
2023-03-04T07:45:01.684Z,4.59
2023-03-04T07:47:31.661Z,4.72
2023-03-04T07:50:00.747Z,4.86
2023-03-04T07:52:30.328Z,4.98
2023-03-04T07:55:00.236Z,5.12
2023-03-04T07:57:29.857Z,5.28
2023-03-04T08:00:01.569Z,5.43
2023-03-04T08:02:31.880Z,5.56
2023-03-04T08:05:01.196Z,5.78
2023-03-04T08:07:58.197Z,6.04
2023-03-04T08:10:30.279Z,6.30
2023-03-04T08:13:02.646Z,6.56
2023-03-04T08:15:35.624Z,6.79
2023-03-04T08:18:05.587Z,6.96
2023-03-04T08:20:35.299Z,7.09
2023-03-04T08:23:41.314Z,7.17
2023-03-04T08:26:23.135Z,7.34
2023-03-04T08:28:58.968Z,7.53
2023-03-04T08:31:31.346Z,7.73
2023-03-04T08:34:04.915Z,7.93
2023-03-04T08:36:34.705Z,8.16
2023-03-04T08:39:05.860Z,8.37
2023-03-04T08:41:35.976Z,8.60
2023-03-04T08:44:10.817Z,8.86
2023-03-04T08:46:42.450Z,9.11
2023-03-04T08:49:14.773Z,9.28
2023-03-04T08:51:45.793Z,9.42
2023-03-04T08:54:14.986Z,9.48
2023-03-04T08:56:44.566Z,9.50
2023-03-04T08:59:13.886Z,9.70
2023-03-04T09:01:44.250Z,9.96
2023-03-04T09:04:15.280Z,10.14
2023-03-04T09:06:48.134Z,10.22
2023-03-04T09:09:17.616Z,10.35
2023-03-04T09:11:46.821Z,10.43
2023-03-04T09:14:16.259Z,10.37
2023-03-04T09:16:50.091Z,10.54
2023-03-04T09:19:19.207Z,10.76
2023-03-04T09:21:48.567Z,11.02
2023-03-04T09:24:17.753Z,11.29
2023-03-04T09:26:52.566Z,11.54
2023-03-04T09:29:24.458Z,11.77
2023-03-04T09:32:00.077Z,12.03
2023-03-04T09:34:33.192Z,12.29
2023-03-04T09:37:02.671Z,12.45
2023-03-04T09:39:32.834Z,12.69
2023-03-04T09:42:06.578Z,12.95
2023-03-04T09:44:52.005Z,13.16
2023-03-04T09:47:24.537Z,13.34
2023-03-04T09:50:08.127Z,13.55
2023-03-04T09:53:05.967Z,13.70
2023-03-04T09:55:48.687Z,13.87
2023-03-04T09:58:48.271Z,13.89
2023-03-04T10:01:27.181Z,13.85
2023-03-04T10:04:20.772Z,13.79
2023-03-04T10:06:57.425Z,13.69
2023-03-04T10:09:54.393Z,13.71
2023-03-04T10:12:30.851Z,13.90
2023-03-04T10:15:08.275Z,14.10
2023-03-04T10:17:43.285Z,14.28
2023-03-04T10:20:19.667Z,14.52
2023-03-04T10:22:52.186Z,14.71
2023-03-04T10:25:32.835Z,14.69
2023-03-04T10:28:11.272Z,14.84
2023-03-04T10:31:00.763Z,15.19
2023-03-04T10:33:36.875Z,15.49
2023-03-04T10:36:34.554Z,15.68
2023-03-04T10:39:14.208Z,16.08
2023-03-04T10:41:46.812Z,16.47
2023-03-04T10:44:17.978Z,16.81
2023-03-04T10:46:49.961Z,17.08
2023-03-04T10:49:20.138Z,17.23
2023-03-04T10:52:28.369Z,17.52
2023-03-04T10:55:05.294Z,17.68
2023-03-04T10:57:42.092Z,17.46
2023-03-04T11:00:38.975Z,17.37
2023-03-04T11:03:30.213Z,17.73
2023-03-04T11:06:11.107Z,18.14
2023-03-04T11:08:43.427Z,18.37
2023-03-04T11:11:48.041Z,18.53
2023-03-04T11:14:32.306Z,18.63
2023-03-04T11:17:17.149Z,18.76
2023-03-04T11:20:33.933Z,18.95
2023-03-04T11:23:13.010Z,19.24
2023-03-04T11:25:52.907Z,19.41
2023-03-04T11:28:31.160Z,19.47
2023-03-04T11:31:16.321Z,19.23
2023-03-04T11:33:57.943Z,19.31
2023-03-04T11:36:57.755Z,19.21
2023-03-04T11:40:13.988Z,19.34
2023-03-04T11:43:05.397Z,19.48
2023-03-04T11:45:47.845Z,19.61
2023-03-04T11:48:41.366Z,19.80
2023-03-04T11:51:24.301Z,19.46
2023-03-04T11:54:09.779Z,19.84
2023-03-04T11:56:45.557Z,20.16
2023-03-04T11:59:44.327Z,20.58
2023-03-04T12:02:21.540Z,20.88
2023-03-04T12:05:02.292Z,20.96
2023-03-04T12:07:45.810Z,20.90
2023-03-04T12:10:49.965Z,20.76
2023-03-04T12:13:32.303Z,20.60
2023-03-04T12:16:34.277Z,20.50
2023-03-04T12:19:29.755Z,20.48
2023-03-04T12:22:39.379Z,20.47
2023-03-04T12:25:30.165Z,20.69
2023-03-04T12:28:22.069Z,20.72
2023-03-04T12:31:23.991Z,21.14
2023-03-04T12:34:16.096Z,21.79
2023-03-04T12:36:57.377Z,22.29
2023-03-04T12:39:43.062Z,22.49
2023-03-04T12:42:43.289Z,22.74
2023-03-04T12:45:32.847Z,22.97
2023-03-04T12:48:07.586Z,22.97
2023-03-04T12:51:17.888Z,22.68
2023-03-04T12:53:59.532Z,22.61
2023-03-04T12:56:44.095Z,22.91
2023-03-04T12:59:18.220Z,23.06
2023-03-04T13:02:34.041Z,23.23
2023-03-04T13:05:42.358Z,23.33
2023-03-04T13:08:19.190Z,23.32
2023-03-04T13:10:51.585Z,23.32
2023-03-04T13:13:38.200Z,23.33
2023-03-04T13:16:39.069Z,23.23
2023-03-04T13:19:45.544Z,23.19
2023-03-04T13:22:37.830Z,22.34
2023-03-04T13:25:58.748Z,21.67
2023-03-04T13:28:42.484Z,20.98
2023-03-04T13:31:26.177Z,20.98
2023-03-04T13:34:02.696Z,21.30
2023-03-04T13:37:06.220Z,21.30
2023-03-04T13:39:39.288Z,21.02
2023-03-04T13:42:48.081Z,20.65
2023-03-04T13:45:39.678Z,20.08
2023-03-04T13:48:31.458Z,19.50
2023-03-04T13:51:17.595Z,19.32
2023-03-04T13:54:32.658Z,19.58
2023-03-04T13:57:02.929Z,20.10
2023-03-04T13:59:59.259Z,20.49
2023-03-04T14:02:36.415Z,20.72
2023-03-04T14:05:12.829Z,21.01
2023-03-04T14:07:42.235Z,21.37
2023-03-04T14:10:15.871Z,21.76
2023-03-04T14:13:01.183Z,22.02
2023-03-04T14:15:34.408Z,22.37
2023-03-04T14:18:06.515Z,22.68
2023-03-04T14:20:59.823Z,22.78
2023-03-04T14:23:39.350Z,23.06
2023-03-04T14:26:15.561Z,23.26
2023-03-04T14:28:55.931Z,23.35
2023-03-04T14:31:32.506Z,23.15
2023-03-04T14:34:04.116Z,23.08
2023-03-04T14:36:36.947Z,23.17
2023-03-04T14:39:08.994Z,23.13
2023-03-04T14:41:42.408Z,23.21
2023-03-04T14:44:41.277Z,23.29
2023-03-04T14:47:33.506Z,23.34
2023-03-04T14:50:27.635Z,23.39
2023-03-04T14:53:22.549Z,23.01
2023-03-04T14:56:05.271Z,22.69
2023-03-04T14:58:38.092Z,22.35
2023-03-04T15:01:23.295Z,22.30
2023-03-04T15:04:05.249Z,22.15
2023-03-04T15:06:37.912Z,22.04
2023-03-04T15:09:21.550Z,21.82
2023-03-04T15:12:04.232Z,21.64
2023-03-04T15:14:43.613Z,21.39
2023-03-04T15:17:41.566Z,21.04
2023-03-04T15:20:10.631Z,20.59
2023-03-04T15:22:49.569Z,20.11
2023-03-04T15:25:20.631Z,19.52
2023-03-04T15:27:51.887Z,19.11
2023-03-04T15:30:33.536Z,18.67
2023-03-04T15:33:11.015Z,18.04
2023-03-04T15:35:59.141Z,17.52
2023-03-04T15:38:30.963Z,16.99
2023-03-04T15:41:01.045Z,16.50
2023-03-04T15:43:36.806Z,16.00
2023-03-04T15:46:17.062Z,15.55
2023-03-04T15:48:50.959Z,15.16
2023-03-04T15:51:25.055Z,14.66
2023-03-04T15:54:03.803Z,14.31
2023-03-04T15:56:35.421Z,13.84
2023-03-04T15:59:15.216Z,13.56
2023-03-04T16:01:46.916Z,13.23
2023-03-04T16:04:45.964Z,12.95
2023-03-04T16:07:21.706Z,12.67
2023-03-04T16:10:15.974Z,12.41
2023-03-04T16:12:47.122Z,12.20
2023-03-04T16:15:20.370Z,11.99
2023-03-04T16:17:50.182Z,11.85
2023-03-04T16:20:26.599Z,11.66
2023-03-04T16:23:01.182Z,11.46
2023-03-04T16:29:30.691Z,11.07
2023-03-04T16:32:26.597Z,10.93
2023-03-04T16:34:58.823Z,10.69
2023-03-04T16:37:27.784Z,10.44
2023-03-04T16:39:59.026Z,10.29
2023-03-04T16:42:33.964Z,10.10
2023-03-04T16:45:03.445Z,9.94
2023-03-04T16:47:38.050Z,9.79
2023-03-04T16:50:07.366Z,9.63
2023-03-04T16:53:00.995Z,9.49
2023-03-04T16:55:32.361Z,9.37
2023-03-04T16:58:04.313Z,9.23
2023-03-04T17:00:38.999Z,9.10
2023-03-04T17:03:14.482Z,8.96
2023-03-04T17:05:46.206Z,8.83
2023-03-04T17:08:19.761Z,8.71
2023-03-04T17:10:53.416Z,8.57
2023-03-04T17:13:27.708Z,8.41
2023-03-04T17:16:07.974Z,8.28
2023-03-04T17:18:46.472Z,8.12
2023-03-04T17:21:20.364Z,7.97
2023-03-04T17:23:55.876Z,7.81
2023-03-04T17:26:34.196Z,7.67
2023-03-04T17:29:09.148Z,7.56
2023-03-04T17:31:38.789Z,7.45
2023-03-04T17:34:08.255Z,7.30
2023-03-04T17:36:38.421Z,7.20
2023-03-04T17:39:08.131Z,7.05
2023-03-04T17:41:37.886Z,6.88
2023-03-04T17:44:07.592Z,6.73
2023-03-04T17:46:37.276Z,6.59
2023-03-04T17:49:06.429Z,6.48
2023-03-04T17:51:38.775Z,6.41
2023-03-04T17:54:10.608Z,6.31
2023-03-04T17:56:41.027Z,6.18
2023-03-04T17:59:18.017Z,6.05
2023-03-04T18:01:52.884Z,5.92
2023-03-04T18:04:24.018Z,5.75
2023-03-04T18:06:56.695Z,5.60
2023-03-04T18:09:26.373Z,5.50
2023-03-04T18:12:25.336Z,5.42
2023-03-04T18:14:58.654Z,5.20
2023-03-04T18:17:28.638Z,5.13
2023-03-04T18:19:57.835Z,5.06
2023-03-04T18:22:33.399Z,4.96
2023-03-04T18:25:03.622Z,4.87
2023-03-04T18:27:34.006Z,4.73
2023-03-04T18:30:03.834Z,4.58
2023-03-04T18:32:49.484Z,4.47
2023-03-04T18:35:26.048Z,4.39
2023-03-04T18:38:03.223Z,4.34
2023-03-04T18:40:38.934Z,4.30
2023-03-04T18:43:09.133Z,4.25
2023-03-04T18:45:41.229Z,4.22
2023-03-04T18:48:11.125Z,4.13
2023-03-04T18:50:40.288Z,4.05
2023-03-04T18:53:15.928Z,4.00
2023-03-04T18:55:47.654Z,3.95
2023-03-04T18:58:17.287Z,3.91
2023-03-04T19:00:46.923Z,3.84
2023-03-04T19:03:17.938Z,3.80
2023-03-04T19:05:47.415Z,3.75
2023-03-04T19:08:18.242Z,3.69
2023-03-04T19:10:47.472Z,3.65
2023-03-04T19:13:18.817Z,3.58
2023-03-04T19:15:50.135Z,3.51
2023-03-04T19:18:19.908Z,3.44
2023-03-04T19:20:49.463Z,3.39
2023-03-04T19:23:27.820Z,3.34
2023-03-04T19:26:00.203Z,3.30
2023-03-04T19:28:30.566Z,3.27
2023-03-04T19:31:13.738Z,3.21
2023-03-04T19:33:46.341Z,3.19
2023-03-04T19:36:23.421Z,3.16
2023-03-04T19:38:56.217Z,3.13
2023-03-04T19:41:27.998Z,3.09
2023-03-04T19:43:58.285Z,3.08
2023-03-04T19:46:28.292Z,3.02
2023-03-04T19:48:57.805Z,3.01
2023-03-04T19:51:55.437Z,2.96
2023-03-04T19:54:24.754Z,2.93
2023-03-04T19:56:54.945Z,2.89
2023-03-04T19:59:30.205Z,2.79
2023-03-04T20:02:02.247Z,2.74
2023-03-04T20:04:32.513Z,2.71
2023-03-04T20:07:03.864Z,2.68
2023-03-04T20:09:34.482Z,2.58
2023-03-04T20:12:10.354Z,2.50
2023-03-04T20:14:40.734Z,2.44
2023-03-04T20:17:12.734Z,2.39
2023-03-04T20:19:42.315Z,2.35
2023-03-04T20:22:19.230Z,2.30
2023-03-04T20:24:51.030Z,2.19
2023-03-04T20:27:20.212Z,2.07
2023-03-04T20:29:50.240Z,2.00
2023-03-04T20:32:19.545Z,1.95
2023-03-04T20:34:54.875Z,1.88
2023-03-04T20:37:25.344Z,1.82
2023-03-04T20:39:57.289Z,1.76
2023-03-04T20:42:27.013Z,1.70
2023-03-04T20:44:56.724Z,1.66
2023-03-04T20:47:27.430Z,1.62
2023-03-04T20:49:57.983Z,1.57
2023-03-04T20:52:27.583Z,1.51
2023-03-04T20:54:59.858Z,1.46
2023-03-04T20:57:32.202Z,1.39
2023-03-04T21:00:01.549Z,1.31
2023-03-04T21:02:31.691Z,1.21
2023-03-04T21:05:02.388Z,1.13
2023-03-04T21:07:38.761Z,1.03
2023-03-04T21:10:08.314Z,0.96
2023-03-04T21:12:38.346Z,0.86
2023-03-04T21:15:10.365Z,0.84
2023-03-04T21:17:39.474Z,0.82
2023-03-04T21:20:11.217Z,0.81
2023-03-04T21:22:41.112Z,0.81
2023-03-04T21:25:10.183Z,0.79
2023-03-04T21:27:43.071Z,0.76
2023-03-04T21:30:13.741Z,0.76
2023-03-04T21:32:43.324Z,0.74
2023-03-04T21:35:17.097Z,0.75
2023-03-04T21:37:57.627Z,0.74
2023-03-04T21:40:27.322Z,0.73
2023-03-04T21:42:56.431Z,0.68
2023-03-04T21:45:25.673Z,0.67
2023-03-04T21:47:58.579Z,0.65
2023-03-04T21:50:27.995Z,0.62
2023-03-04T21:52:58.942Z,0.60
2023-03-04T21:55:28.398Z,0.58
2023-03-04T21:57:57.458Z,0.57
2023-03-04T22:00:28.664Z,0.55
2023-03-04T22:02:57.749Z,0.52
2023-03-04T22:05:27.147Z,0.47
2023-03-04T22:08:04.148Z,0.43
2023-03-04T22:10:38.235Z,0.37
2023-03-04T22:13:10.767Z,0.33
2023-03-04T22:15:42.769Z,0.29
2023-03-04T22:18:14.638Z,0.25
2023-03-04T22:20:45.857Z,0.23
2023-03-04T22:23:15.452Z,0.16
2023-03-04T22:25:45.454Z,0.09
2023-03-04T22:28:15.130Z,0.02
2023-03-04T22:30:45.045Z,-0.05
2023-03-04T22:33:14.101Z,-0.08
2023-03-04T22:35:46.262Z,-0.15
2023-03-04T22:38:15.518Z,-0.18
2023-03-04T22:40:46.052Z,-0.22
2023-03-04T22:43:18.040Z,-0.27
2023-03-04T22:45:48.197Z,-0.31
2023-03-04T22:48:19.486Z,-0.35
2023-03-04T22:50:49.887Z,-0.39
2023-03-04T22:53:19.715Z,-0.41
2023-03-04T22:55:48.986Z,-0.45
2023-03-04T22:58:18.980Z,-0.48
2023-03-04T23:00:48.195Z,-0.48
2023-03-04T23:03:17.571Z,-0.47
2023-03-04T23:05:47.438Z,-0.49
2023-03-04T23:08:17.217Z,-0.48
2023-03-04T23:10:47.057Z,-0.48
2023-03-04T23:13:16.223Z,-0.52
2023-03-04T23:15:45.259Z,-0.53
2023-03-04T23:18:15.965Z,-0.53
2023-03-04T23:20:45.545Z,-0.54
2023-03-04T23:23:18.368Z,-0.58
2023-03-04T23:25:52.278Z,-0.64
2023-03-04T23:28:21.686Z,-0.67
2023-03-04T23:30:51.781Z,-0.71
2023-03-04T23:33:21.332Z,-0.72
2023-03-04T23:35:50.650Z,-0.73
2023-03-04T23:38:20.446Z,-0.73
2023-03-04T23:40:52.960Z,-0.72
2023-03-04T23:43:22.949Z,-0.73
2023-03-04T23:45:52.665Z,-0.76
2023-03-04T23:48:21.948Z,-0.76
2023-03-04T23:50:55.810Z,-0.79
2023-03-04T23:53:26.079Z,-0.86
2023-03-04T23:55:58.745Z,-0.90
2023-03-04T23:58:27.991Z,-0.96
